sensor_id;sensor_type;location;lat;lon;timestamp;P1;durP1;ratioP1;P2;durP2;ratioP2
13339;SDS011;6739;47.398;8.774;2022-09-24T00:02:21;3.07;;;2.77;;
13339;SDS011;6739;47.398;8.774;2022-09-24T00:04:49;3.70;;;2.83;;
13339;SDS011;6739;47.398;8.774;2022-09-24T00:07:16;2.93;;;2.73;;
13339;SDS011;6739;47.398;8.774;2022-09-24T00:09:44;2.67;;;2.47;;
13339;SDS011;6739;47.398;8.774;2022-09-24T00:12:14;3.00;;;2.70;;
13339;SDS011;6739;47.398;8.774;2022-09-24T00:14:42;2.97;;;2.70;;
13339;SDS011;6739;47.398;8.774;2022-09-24T00:17:10;4.03;;;2.20;;
13339;SDS011;6739;47.398;8.774;2022-09-24T00:19:37;2.63;;;2.33;;
13339;SDS011;6739;47.398;8.774;2022-09-24T00:22:05;5.00;;;2.50;;
13339;SDS011;6739;47.398;8.774;2022-09-24T00:24:33;5.67;;;2.47;;
13339;SDS011;6739;47.398;8.774;2022-09-24T00:27:19;2.87;;;2.67;;
13339;SDS011;6739;47.398;8.774;2022-09-24T00:29:47;2.47;;;2.27;;
13339;SDS011;6739;47.398;8.774;2022-09-24T00:32:14;3.40;;;2.37;;
13339;SDS011;6739;47.398;8.774;2022-09-24T00:34:42;2.17;;;1.97;;
13339;SDS011;6739;47.398;8.774;2022-09-24T00:37:10;3.30;;;2.60;;
13339;SDS011;6739;47.398;8.774;2022-09-24T00:39:37;2.63;;;2.43;;
13339;SDS011;6739;47.398;8.774;2022-09-24T00:42:05;3.20;;;2.10;;
13339;SDS011;6739;47.398;8.774;2022-09-24T00:44:53;3.80;;;2.77;;
13339;SDS011;6739;47.398;8.774;2022-09-24T00:47:25;2.73;;;2.00;;
13339;SDS011;6739;47.398;8.774;2022-09-24T00:49:53;2.60;;;2.40;;
13339;SDS011;6739;47.398;8.774;2022-09-24T00:52:24;2.40;;;2.17;;
13339;SDS011;6739;47.398;8.774;2022-09-24T00:54:52;2.60;;;2.40;;
13339;SDS011;6739;47.398;8.774;2022-09-24T00:57:20;2.63;;;2.43;;
13339;SDS011;6739;47.398;8.774;2022-09-24T00:59:49;4.13;;;2.47;;
13339;SDS011;6739;47.398;8.774;2022-09-24T01:02:20;2.47;;;2.20;;
13339;SDS011;6739;47.398;8.774;2022-09-24T01:04:48;3.03;;;2.40;;
13339;SDS011;6739;47.398;8.774;2022-09-24T01:07:16;3.60;;;2.57;;
13339;SDS011;6739;47.398;8.774;2022-09-24T01:09:44;2.07;;;1.90;;
13339;SDS011;6739;47.398;8.774;2022-09-24T01:12:13;2.70;;;2.50;;
13339;SDS011;6739;47.398;8.774;2022-09-24T01:14:50;4.33;;;2.83;;
13339;SDS011;6739;47.398;8.774;2022-09-24T01:17:24;3.17;;;2.77;;
13339;SDS011;6739;47.398;8.774;2022-09-24T01:22:41;3.70;;;3.30;;
13339;SDS011;6739;47.398;8.774;2022-09-24T01:25:13;3.67;;;3.37;;
13339;SDS011;6739;47.398;8.774;2022-09-24T01:27:46;4.10;;;3.40;;
13339;SDS011;6739;47.398;8.774;2022-09-24T01:30:18;3.73;;;2.97;;
13339;SDS011;6739;47.398;8.774;2022-09-24T01:32:47;3.67;;;3.30;;
13339;SDS011;6739;47.398;8.774;2022-09-24T01:35:17;4.10;;;3.40;;
13339;SDS011;6739;47.398;8.774;2022-09-24T01:37:47;3.37;;;3.07;;
13339;SDS011;6739;47.398;8.774;2022-09-24T01:40:17;3.50;;;3.23;;
13339;SDS011;6739;47.398;8.774;2022-09-24T01:42:45;4.83;;;3.47;;
13339;SDS011;6739;47.398;8.774;2022-09-24T01:45:13;3.97;;;3.63;;
13339;SDS011;6739;47.398;8.774;2022-09-24T01:47:44;4.30;;;4.00;;
13339;SDS011;6739;47.398;8.774;2022-09-24T01:50:13;3.93;;;3.60;;
13339;SDS011;6739;47.398;8.774;2022-09-24T01:52:42;4.23;;;3.83;;
13339;SDS011;6739;47.398;8.774;2022-09-24T01:55:12;6.60;;;4.10;;
13339;SDS011;6739;47.398;8.774;2022-09-24T01:57:42;4.17;;;3.73;;
13339;SDS011;6739;47.398;8.774;2022-09-24T02:00:11;4.07;;;3.77;;
13339;SDS011;6739;47.398;8.774;2022-09-24T02:02:40;4.00;;;3.70;;
13339;SDS011;6739;47.398;8.774;2022-09-24T02:05:13;4.03;;;3.63;;
13339;SDS011;6739;47.398;8.774;2022-09-24T02:07:44;4.83;;;4.37;;
13339;SDS011;6739;47.398;8.774;2022-09-24T02:10:15;5.33;;;4.00;;
13339;SDS011;6739;47.398;8.774;2022-09-24T02:12:45;4.53;;;4.13;;
13339;SDS011;6739;47.398;8.774;2022-09-24T02:15:14;6.27;;;3.60;;
13339;SDS011;6739;47.398;8.774;2022-09-24T02:17:45;4.30;;;3.90;;
13339;SDS011;6739;47.398;8.774;2022-09-24T02:20:17;4.00;;;3.70;;
13339;SDS011;6739;47.398;8.774;2022-09-24T02:22:46;4.37;;;4.03;;
13339;SDS011;6739;47.398;8.774;2022-09-24T02:25:17;4.60;;;4.20;;
13339;SDS011;6739;47.398;8.774;2022-09-24T02:27:46;5.67;;;4.97;;
13339;SDS011;6739;47.398;8.774;2022-09-24T02:30:14;4.57;;;4.17;;
13339;SDS011;6739;47.398;8.774;2022-09-24T02:32:42;5.33;;;4.83;;
13339;SDS011;6739;47.398;8.774;2022-09-24T02:35:11;4.07;;;3.77;;
13339;SDS011;6739;47.398;8.774;2022-09-24T02:37:39;4.60;;;4.00;;
13339;SDS011;6739;47.398;8.774;2022-09-24T02:40:08;4.47;;;4.07;;
13339;SDS011;6739;47.398;8.774;2022-09-24T02:42:36;4.67;;;4.27;;
13339;SDS011;6739;47.398;8.774;2022-09-24T02:45:05;5.07;;;4.10;;
13339;SDS011;6739;47.398;8.774;2022-09-24T02:47:33;4.43;;;4.03;;
13339;SDS011;6739;47.398;8.774;2022-09-24T02:50:01;5.13;;;4.63;;
13339;SDS011;6739;47.398;8.774;2022-09-24T02:52:29;5.87;;;4.53;;
13339;SDS011;6739;47.398;8.774;2022-09-24T02:54:57;5.57;;;5.07;;
13339;SDS011;6739;47.398;8.774;2022-09-24T02:57:25;4.97;;;4.53;;
13339;SDS011;6739;47.398;8.774;2022-09-24T02:59:53;5.20;;;4.60;;
13339;SDS011;6739;47.398;8.774;2022-09-24T03:02:20;5.30;;;4.83;;
13339;SDS011;6739;47.398;8.774;2022-09-24T03:04:48;4.63;;;4.23;;
13339;SDS011;6739;47.398;8.774;2022-09-24T03:07:16;4.33;;;4.03;;
13339;SDS011;6739;47.398;8.774;2022-09-24T03:09:46;6.47;;;5.20;;
13339;SDS011;6739;47.398;8.774;2022-09-24T03:12:15;5.40;;;4.90;;
13339;SDS011;6739;47.398;8.774;2022-09-24T03:14:43;4.87;;;4.47;;
13339;SDS011;6739;47.398;8.774;2022-09-24T03:17:10;5.53;;;5.03;;
13339;SDS011;6739;47.398;8.774;2022-09-24T03:19:38;5.53;;;4.97;;
13339;SDS011;6739;47.398;8.774;2022-09-24T03:22:06;4.80;;;4.40;;
13339;SDS011;6739;47.398;8.774;2022-09-24T03:24:34;5.83;;;5.33;;
13339;SDS011;6739;47.398;8.774;2022-09-24T03:27:01;5.50;;;5.10;;
13339;SDS011;6739;47.398;8.774;2022-09-24T03:29:30;7.47;;;6.07;;
13339;SDS011;6739;47.398;8.774;2022-09-24T03:32:15;6.63;;;6.13;;
13339;SDS011;6739;47.398;8.774;2022-09-24T03:34:43;6.00;;;5.43;;
13339;SDS011;6739;47.398;8.774;2022-09-24T03:37:11;5.67;;;5.17;;
13339;SDS011;6739;47.398;8.774;2022-09-24T03:39:38;5.27;;;4.87;;
13339;SDS011;6739;47.398;8.774;2022-09-24T03:42:06;6.00;;;5.50;;
13339;SDS011;6739;47.398;8.774;2022-09-24T03:44:35;5.40;;;5.00;;
13339;SDS011;6739;47.398;8.774;2022-09-24T03:47:03;5.77;;;5.27;;
13339;SDS011;6739;47.398;8.774;2022-09-24T03:49:30;5.37;;;4.97;;
13339;SDS011;6739;47.398;8.774;2022-09-24T03:51:58;5.83;;;5.33;;
13339;SDS011;6739;47.398;8.774;2022-09-24T03:54:25;6.60;;;6.00;;
13339;SDS011;6739;47.398;8.774;2022-09-24T03:56:53;5.57;;;5.07;;
13339;SDS011;6739;47.398;8.774;2022-09-24T03:59:21;5.67;;;5.17;;
13339;SDS011;6739;47.398;8.774;2022-09-24T04:01:50;5.77;;;5.37;;
13339;SDS011;6739;47.398;8.774;2022-09-24T04:04:17;5.57;;;5.17;;
13339;SDS011;6739;47.398;8.774;2022-09-24T04:06:45;5.17;;;4.67;;
13339;SDS011;6739;47.398;8.774;2022-09-24T04:09:12;5.93;;;5.33;;
13339;SDS011;6739;47.398;8.774;2022-09-24T04:11:40;6.23;;;5.40;;
13339;SDS011;6739;47.398;8.774;2022-09-24T04:14:09;6.23;;;5.37;;
13339;SDS011;6739;47.398;8.774;2022-09-24T04:16:36;5.50;;;5.00;;
13339;SDS011;6739;47.398;8.774;2022-09-24T04:19:08;6.50;;;6.00;;
13339;SDS011;6739;47.398;8.774;2022-09-24T04:21:36;5.70;;;5.20;;
13339;SDS011;6739;47.398;8.774;2022-09-24T04:24:04;6.33;;;5.73;;
13339;SDS011;6739;47.398;8.774;2022-09-24T04:26:32;6.27;;;5.70;;
13339;SDS011;6739;47.398;8.774;2022-09-24T04:28:59;6.50;;;5.90;;
13339;SDS011;6739;47.398;8.774;2022-09-24T04:31:27;5.67;;;5.17;;
13339;SDS011;6739;47.398;8.774;2022-09-24T04:33:57;4.97;;;4.63;;
13339;SDS011;6739;47.398;8.774;2022-09-24T04:36:26;5.50;;;5.00;;
13339;SDS011;6739;47.398;8.774;2022-09-24T04:38:53;5.30;;;4.87;;
13339;SDS011;6739;47.398;8.774;2022-09-24T04:41:21;5.23;;;4.83;;
13339;SDS011;6739;47.398;8.774;2022-09-24T04:43:49;5.67;;;5.17;;
13339;SDS011;6739;47.398;8.774;2022-09-24T04:46:16;6.40;;;5.90;;
13339;SDS011;6739;47.398;8.774;2022-09-24T04:48:44;6.00;;;5.50;;
13339;SDS011;6739;47.398;8.774;2022-09-24T04:51:11;6.03;;;5.47;;
13339;SDS011;6739;47.398;8.774;2022-09-24T04:53:42;5.27;;;4.87;;
13339;SDS011;6739;47.398;8.774;2022-09-24T04:56:12;7.10;;;5.30;;
13339;SDS011;6739;47.398;8.774;2022-09-24T04:58:39;5.37;;;4.87;;
13339;SDS011;6739;47.398;8.774;2022-09-24T05:01:07;5.63;;;5.13;;
13339;SDS011;6739;47.398;8.774;2022-09-24T05:03:35;5.60;;;5.10;;
13339;SDS011;6739;47.398;8.774;2022-09-24T05:06:03;5.17;;;4.80;;
13339;SDS011;6739;47.398;8.774;2022-09-24T05:08:30;5.60;;;5.10;;
13339;SDS011;6739;47.398;8.774;2022-09-24T05:10:59;5.53;;;5.10;;
13339;SDS011;6739;47.398;8.774;2022-09-24T05:13:27;5.43;;;4.93;;
13339;SDS011;6739;47.398;8.774;2022-09-24T05:15:55;5.17;;;4.67;;
13339;SDS011;6739;47.398;8.774;2022-09-24T05:18:22;5.37;;;4.97;;
13339;SDS011;6739;47.398;8.774;2022-09-24T05:20:49;4.70;;;4.30;;
13339;SDS011;6739;47.398;8.774;2022-09-24T05:23:17;5.00;;;4.63;;
13339;SDS011;6739;47.398;8.774;2022-09-24T05:25:44;5.20;;;4.60;;
13339;SDS011;6739;47.398;8.774;2022-09-24T05:28:31;5.10;;;4.70;;
13339;SDS011;6739;47.398;8.774;2022-09-24T05:30:59;4.93;;;4.63;;
13339;SDS011;6739;47.398;8.774;2022-09-24T05:33:27;4.70;;;4.40;;
13339;SDS011;6739;47.398;8.774;2022-09-24T05:35:55;4.90;;;4.50;;
13339;SDS011;6739;47.398;8.774;2022-09-24T05:38:23;4.90;;;4.50;;
13339;SDS011;6739;47.398;8.774;2022-09-24T05:40:50;5.07;;;4.57;;
13339;SDS011;6739;47.398;8.774;2022-09-24T05:43:19;4.60;;;4.23;;
13339;SDS011;6739;47.398;8.774;2022-09-24T05:45:47;5.07;;;4.67;;
13339;SDS011;6739;47.398;8.774;2022-09-24T05:48:15;5.07;;;4.67;;
13339;SDS011;6739;47.398;8.774;2022-09-24T05:50:43;5.77;;;5.27;;
13339;SDS011;6739;47.398;8.774;2022-09-24T05:53:10;6.10;;;5.50;;
13339;SDS011;6739;47.398;8.774;2022-09-24T05:55:38;4.97;;;4.57;;
13339;SDS011;6739;47.398;8.774;2022-09-24T05:58:06;5.57;;;5.07;;
13339;SDS011;6739;47.398;8.774;2022-09-24T06:00:33;8.13;;;5.40;;
13339;SDS011;6739;47.398;8.774;2022-09-24T06:03:03;6.50;;;4.63;;
13339;SDS011;6739;47.398;8.774;2022-09-24T06:05:32;5.30;;;4.90;;
13339;SDS011;6739;47.398;8.774;2022-09-24T06:08:00;5.50;;;5.10;;
13339;SDS011;6739;47.398;8.774;2022-09-24T06:10:28;5.43;;;4.93;;
13339;SDS011;6739;47.398;8.774;2022-09-24T06:12:55;5.30;;;4.60;;
13339;SDS011;6739;47.398;8.774;2022-09-24T06:15:23;4.47;;;4.07;;
13339;SDS011;6739;47.398;8.774;2022-09-24T06:17:52;4.77;;;4.27;;
13339;SDS011;6739;47.398;8.774;2022-09-24T06:20:21;4.83;;;4.43;;
13339;SDS011;6739;47.398;8.774;2022-09-24T06:22:48;4.90;;;4.43;;
13339;SDS011;6739;47.398;8.774;2022-09-24T06:25:16;5.00;;;4.60;;
13339;SDS011;6739;47.398;8.774;2022-09-24T06:27:43;5.23;;;4.83;;
13339;SDS011;6739;47.398;8.774;2022-09-24T06:30:11;5.73;;;5.20;;
13339;SDS011;6739;47.398;8.774;2022-09-24T06:32:38;8.10;;;6.70;;
13339;SDS011;6739;47.398;8.774;2022-09-24T06:35:06;8.57;;;7.03;;
13339;SDS011;6739;47.398;8.774;2022-09-24T06:37:35;9.67;;;8.57;;
13339;SDS011;6739;47.398;8.774;2022-09-24T06:40:03;7.13;;;6.17;;
13339;SDS011;6739;47.398;8.774;2022-09-24T06:42:31;6.37;;;4.80;;
13339;SDS011;6739;47.398;8.774;2022-09-24T06:44:58;5.90;;;5.30;;
13339;SDS011;6739;47.398;8.774;2022-09-24T06:47:26;6.03;;;5.50;;
13339;SDS011;6739;47.398;8.774;2022-09-24T06:49:54;5.47;;;4.30;;
13339;SDS011;6739;47.398;8.774;2022-09-24T06:52:22;4.07;;;3.77;;
13339;SDS011;6739;47.398;8.774;2022-09-24T06:54:50;4.23;;;3.60;;
13339;SDS011;6739;47.398;8.774;2022-09-24T06:57:20;5.23;;;3.50;;
13339;SDS011;6739;47.398;8.774;2022-09-24T06:59:47;4.30;;;3.90;;
13339;SDS011;6739;47.398;8.774;2022-09-24T07:02:16;4.93;;;4.10;;
13339;SDS011;6739;47.398;8.774;2022-09-24T07:04:43;4.37;;;3.97;;
13339;SDS011;6739;47.398;8.774;2022-09-24T07:07:11;4.43;;;3.70;;
13339;SDS011;6739;47.398;8.774;2022-09-24T07:09:59;3.57;;;3.37;;
13339;SDS011;6739;47.398;8.774;2022-09-24T07:12:27;3.80;;;3.50;;
13339;SDS011;6739;47.398;8.774;2022-09-24T07:14:55;3.93;;;3.50;;
13339;SDS011;6739;47.398;8.774;2022-09-24T07:17:22;4.07;;;3.73;;
13339;SDS011;6739;47.398;8.774;2022-09-24T07:19:50;3.50;;;3.30;;
13339;SDS011;6739;47.398;8.774;2022-09-24T07:22:17;4.27;;;3.47;;
13339;SDS011;6739;47.398;8.774;2022-09-24T07:24:45;3.57;;;3.17;;
13339;SDS011;6739;47.398;8.774;2022-09-24T07:27:14;3.50;;;3.20;;
13339;SDS011;6739;47.398;8.774;2022-09-24T07:29:41;2.97;;;2.77;;
13339;SDS011;6739;47.398;8.774;2022-09-24T07:32:09;3.10;;;2.90;;
13339;SDS011;6739;47.398;8.774;2022-09-24T07:34:36;3.57;;;3.27;;
13339;SDS011;6739;47.398;8.774;2022-09-24T07:37:04;4.03;;;3.73;;
13339;SDS011;6739;47.398;8.774;2022-09-24T07:39:31;3.33;;;3.13;;
13339;SDS011;6739;47.398;8.774;2022-09-24T07:41:59;4.87;;;3.50;;
13339;SDS011;6739;47.398;8.774;2022-09-24T07:44:28;14.70;;;13.40;;
13339;SDS011;6739;47.398;8.774;2022-09-24T07:46:55;3.57;;;3.27;;
13339;SDS011;6739;47.398;8.774;2022-09-24T07:49:23;3.67;;;3.20;;
13339;SDS011;6739;47.398;8.774;2022-09-24T07:51:51;3.03;;;2.80;;
13339;SDS011;6739;47.398;8.774;2022-09-24T07:54:18;7.67;;;6.17;;
13339;SDS011;6739;47.398;8.774;2022-09-24T07:56:45;5.60;;;5.10;;
13339;SDS011;6739;47.398;8.774;2022-09-24T07:59:13;4.30;;;3.90;;
13339;SDS011;6739;47.398;8.774;2022-09-24T08:01:42;3.90;;;3.60;;
13339;SDS011;6739;47.398;8.774;2022-09-24T08:04:09;6.20;;;5.73;;
13339;SDS011;6739;47.398;8.774;2022-09-24T08:06:37;6.97;;;6.47;;
13339;SDS011;6739;47.398;8.774;2022-09-24T08:09:04;3.70;;;3.33;;
13339;SDS011;6739;47.398;8.774;2022-09-24T08:11:32;3.43;;;3.20;;
13339;SDS011;6739;47.398;8.774;2022-09-24T08:14:00;3.03;;;2.83;;
13339;SDS011;6739;47.398;8.774;2022-09-24T08:16:27;4.47;;;4.07;;
13339;SDS011;6739;47.398;8.774;2022-09-24T08:18:56;3.23;;;3.03;;
13339;SDS011;6739;47.398;8.774;2022-09-24T08:21:25;7.03;;;6.40;;
13339;SDS011;6739;47.398;8.774;2022-09-24T08:23:53;3.70;;;3.50;;
13339;SDS011;6739;47.398;8.774;2022-09-24T08:26:21;3.87;;;3.57;;
13339;SDS011;6739;47.398;8.774;2022-09-24T08:28:49;11.00;;;10.10;;
13339;SDS011;6739;47.398;8.774;2022-09-24T08:31:16;3.77;;;3.37;;
13339;SDS011;6739;47.398;8.774;2022-09-24T08:33:44;4.40;;;4.00;;
13339;SDS011;6739;47.398;8.774;2022-09-24T08:36:16;3.77;;;3.50;;
13339;SDS011;6739;47.398;8.774;2022-09-24T08:38:44;10.83;;;9.73;;
13339;SDS011;6739;47.398;8.774;2022-09-24T08:41:20;5.27;;;4.60;;
13339;SDS011;6739;47.398;8.774;2022-09-24T08:43:54;9.13;;;8.23;;
13339;SDS011;6739;47.398;8.774;2022-09-24T08:46:27;5.60;;;5.10;;
13339;SDS011;6739;47.398;8.774;2022-09-24T08:49:14;3.87;;;3.50;;
13339;SDS011;6739;47.398;8.774;2022-09-24T08:51:45;6.00;;;4.90;;
13339;SDS011;6739;47.398;8.774;2022-09-24T08:54:15;6.53;;;5.60;;
13339;SDS011;6739;47.398;8.774;2022-09-24T08:56:44;8.87;;;7.80;;
13339;SDS011;6739;47.398;8.774;2022-09-24T08:59:15;3.33;;;3.00;;
13339;SDS011;6739;47.398;8.774;2022-09-24T09:01:49;4.33;;;4.03;;
13339;SDS011;6739;47.398;8.774;2022-09-24T09:04:23;5.37;;;4.13;;
13339;SDS011;6739;47.398;8.774;2022-09-24T09:06:56;4.63;;;3.87;;
13339;SDS011;6739;47.398;8.774;2022-09-24T09:09:31;4.50;;;4.10;;
13339;SDS011;6739;47.398;8.774;2022-09-24T09:12:02;4.53;;;4.13;;
13339;SDS011;6739;47.398;8.774;2022-09-24T09:14:33;5.60;;;4.37;;
13339;SDS011;6739;47.398;8.774;2022-09-24T09:17:08;3.33;;;3.13;;
13339;SDS011;6739;47.398;8.774;2022-09-24T09:19:39;4.43;;;2.90;;
13339;SDS011;6739;47.398;8.774;2022-09-24T09:22:12;3.87;;;3.60;;
13339;SDS011;6739;47.398;8.774;2022-09-24T09:24:40;6.40;;;3.40;;
13339;SDS011;6739;47.398;8.774;2022-09-24T09:27:10;2.73;;;2.53;;
13339;SDS011;6739;47.398;8.774;2022-09-24T09:29:39;2.87;;;2.67;;
13339;SDS011;6739;47.398;8.774;2022-09-24T09:32:09;3.63;;;2.90;;
13339;SDS011;6739;47.398;8.774;2022-09-24T09:34:43;6.13;;;5.63;;
13339;SDS011;6739;47.398;8.774;2022-09-24T09:37:17;3.20;;;3.00;;
13339;SDS011;6739;47.398;8.774;2022-09-24T09:39:48;2.93;;;2.73;;
13339;SDS011;6739;47.398;8.774;2022-09-24T09:42:22;2.50;;;2.30;;
13339;SDS011;6739;47.398;8.774;2022-09-24T09:44:51;2.30;;;2.10;;
13339;SDS011;6739;47.398;8.774;2022-09-24T09:47:21;2.37;;;2.17;;
13339;SDS011;6739;47.398;8.774;2022-09-24T09:49:51;1.97;;;1.77;;
13339;SDS011;6739;47.398;8.774;2022-09-24T09:52:22;2.57;;;2.37;;
13339;SDS011;6739;47.398;8.774;2022-09-24T09:54:51;2.53;;;2.33;;
13339;SDS011;6739;47.398;8.774;2022-09-24T09:57:19;2.93;;;2.53;;
13339;SDS011;6739;47.398;8.774;2022-09-24T09:59:47;2.10;;;2.00;;
13339;SDS011;6739;47.398;8.774;2022-09-24T10:02:19;2.73;;;2.00;;
13339;SDS011;6739;47.398;8.774;2022-09-24T10:04:50;2.67;;;2.20;;
13339;SDS011;6739;47.398;8.774;2022-09-24T10:07:18;3.03;;;2.73;;
13339;SDS011;6739;47.398;8.774;2022-09-24T10:09:56;3.20;;;2.97;;
13339;SDS011;6739;47.398;8.774;2022-09-24T10:12:24;2.90;;;2.70;;
13339;SDS011;6739;47.398;8.774;2022-09-24T10:14:59;5.00;;;3.23;;
13339;SDS011;6739;47.398;8.774;2022-09-24T10:17:28;5.30;;;4.27;;
13339;SDS011;6739;47.398;8.774;2022-09-24T10:19:56;3.97;;;3.67;;
13339;SDS011;6739;47.398;8.774;2022-09-24T10:22:25;2.90;;;2.70;;
13339;SDS011;6739;47.398;8.774;2022-09-24T10:24:56;3.50;;;2.87;;
13339;SDS011;6739;47.398;8.774;2022-09-24T10:27:28;3.63;;;3.33;;
13339;SDS011;6739;47.398;8.774;2022-09-24T10:29:56;3.97;;;2.63;;
13339;SDS011;6739;47.398;8.774;2022-09-24T10:32:42;4.40;;;3.40;;
13339;SDS011;6739;47.398;8.774;2022-09-24T10:35:20;8.17;;;7.37;;
13339;SDS011;6739;47.398;8.774;2022-09-24T10:37:51;2.60;;;2.40;;
13339;SDS011;6739;47.398;8.774;2022-09-24T10:40:21;2.93;;;2.73;;
13339;SDS011;6739;47.398;8.774;2022-09-24T10:42:59;2.90;;;2.70;;
13339;SDS011;6739;47.398;8.774;2022-09-24T10:45:45;3.37;;;2.67;;
13339;SDS011;6739;47.398;8.774;2022-09-24T10:48:18;2.40;;;2.20;;
13339;SDS011;6739;47.398;8.774;2022-09-24T10:50:50;2.63;;;2.43;;
13339;SDS011;6739;47.398;8.774;2022-09-24T10:53:24;4.53;;;4.23;;
13339;SDS011;6739;47.398;8.774;2022-09-24T10:55:57;2.27;;;2.07;;
13339;SDS011;6739;47.398;8.774;2022-09-24T10:58:35;1.90;;;1.80;;
13339;SDS011;6739;47.398;8.774;2022-09-24T11:01:09;1.80;;;1.70;;
13339;SDS011;6739;47.398;8.774;2022-09-24T11:03:48;2.00;;;1.90;;
13339;SDS011;6739;47.398;8.774;2022-09-24T11:06:20;3.33;;;2.07;;
13339;SDS011;6739;47.398;8.774;2022-09-24T11:08:59;3.93;;;3.13;;
13339;SDS011;6739;47.398;8.774;2022-09-24T11:11:33;1.90;;;1.80;;
13339;SDS011;6739;47.398;8.774;2022-09-24T11:14:10;2.37;;;1.80;;
13339;SDS011;6739;47.398;8.774;2022-09-24T11:16:46;1.73;;;1.63;;
13339;SDS011;6739;47.398;8.774;2022-09-24T11:19:20;1.73;;;1.63;;
13339;SDS011;6739;47.398;8.774;2022-09-24T11:21:58;1.73;;;1.63;;
13339;SDS011;6739;47.398;8.774;2022-09-24T11:24:39;1.93;;;1.83;;
13339;SDS011;6739;47.398;8.774;2022-09-24T11:27:16;1.50;;;1.40;;
13339;SDS011;6739;47.398;8.774;2022-09-24T11:29:55;1.70;;;1.60;;
13339;SDS011;6739;47.398;8.774;2022-09-24T11:32:27;2.47;;;1.83;;
13339;SDS011;6739;47.398;8.774;2022-09-24T11:34:59;1.67;;;1.57;;
13339;SDS011;6739;47.398;8.774;2022-09-24T11:37:34;1.80;;;1.70;;
13339;SDS011;6739;47.398;8.774;2022-09-24T11:40:10;1.60;;;1.43;;
13339;SDS011;6739;47.398;8.774;2022-09-24T11:42:46;1.47;;;1.37;;
13339;SDS011;6739;47.398;8.774;2022-09-24T11:45:27;1.60;;;1.50;;
13339;SDS011;6739;47.398;8.774;2022-09-24T11:48:02;2.00;;;1.70;;
13339;SDS011;6739;47.398;8.774;2022-09-24T11:50:33;2.60;;;1.50;;
13339;SDS011;6739;47.398;8.774;2022-09-24T11:53:05;2.00;;;1.50;;
13339;SDS011;6739;47.398;8.774;2022-09-24T11:55:35;3.20;;;3.00;;
13339;SDS011;6739;47.398;8.774;2022-09-24T11:58:09;1.67;;;1.57;;
13339;SDS011;6739;47.398;8.774;2022-09-24T12:00:39;1.43;;;1.30;;
13339;SDS011;6739;47.398;8.774;2022-09-24T12:03:11;1.83;;;1.60;;
13339;SDS011;6739;47.398;8.774;2022-09-24T12:05:41;1.77;;;1.60;;
13339;SDS011;6739;47.398;8.774;2022-09-24T12:08:11;3.23;;;2.07;;
13339;SDS011;6739;47.398;8.774;2022-09-24T12:10:41;2.37;;;1.77;;
13339;SDS011;6739;47.398;8.774;2022-09-24T12:13:13;1.80;;;1.57;;
13339;SDS011;6739;47.398;8.774;2022-09-24T12:15:45;3.20;;;1.57;;
13339;SDS011;6739;47.398;8.774;2022-09-24T12:18:14;1.60;;;1.50;;
13339;SDS011;6739;47.398;8.774;2022-09-24T12:20:45;1.60;;;1.50;;
13339;SDS011;6739;47.398;8.774;2022-09-24T12:23:13;1.50;;;1.40;;
13339;SDS011;6739;47.398;8.774;2022-09-24T12:25:44;1.50;;;1.40;;
13339;SDS011;6739;47.398;8.774;2022-09-24T12:28:14;2.83;;;2.63;;
13339;SDS011;6739;47.398;8.774;2022-09-24T12:31:03;1.70;;;1.33;;
13339;SDS011;6739;47.398;8.774;2022-09-24T12:33:50;1.90;;;1.80;;
13339;SDS011;6739;47.398;8.774;2022-09-24T12:36:21;1.57;;;1.47;;
13339;SDS011;6739;47.398;8.774;2022-09-24T12:38:50;2.00;;;1.40;;
13339;SDS011;6739;47.398;8.774;2022-09-24T12:41:21;1.50;;;1.40;;
13339;SDS011;6739;47.398;8.774;2022-09-24T12:43:52;1.67;;;1.57;;
13339;SDS011;6739;47.398;8.774;2022-09-24T12:46:21;1.50;;;1.40;;
13339;SDS011;6739;47.398;8.774;2022-09-24T12:48:49;1.50;;;1.40;;
13339;SDS011;6739;47.398;8.774;2022-09-24T12:51:17;2.00;;;1.90;;
13339;SDS011;6739;47.398;8.774;2022-09-24T12:53:55;1.60;;;1.50;;
13339;SDS011;6739;47.398;8.774;2022-09-24T12:56:23;1.40;;;1.30;;
13339;SDS011;6739;47.398;8.774;2022-09-24T12:58:53;1.37;;;1.27;;
13339;SDS011;6739;47.398;8.774;2022-09-24T13:01:28;1.50;;;1.40;;
13339;SDS011;6739;47.398;8.774;2022-09-24T13:04:00;4.30;;;3.90;;
13339;SDS011;6739;47.398;8.774;2022-09-24T13:06:29;9.97;;;8.97;;
13339;SDS011;6739;47.398;8.774;2022-09-24T13:08:57;3.03;;;2.77;;
13339;SDS011;6739;47.398;8.774;2022-09-24T13:11:26;1.87;;;1.60;;
13339;SDS011;6739;47.398;8.774;2022-09-24T13:14:00;2.97;;;2.77;;
13339;SDS011;6739;47.398;8.774;2022-09-24T13:16:29;5.50;;;5.07;;
13339;SDS011;6739;47.398;8.774;2022-09-24T13:18:57;2.23;;;2.13;;
13339;SDS011;6739;47.398;8.774;2022-09-24T13:21:27;2.40;;;2.20;;
13339;SDS011;6739;47.398;8.774;2022-09-24T13:23:55;2.67;;;2.47;;
13339;SDS011;6739;47.398;8.774;2022-09-24T13:26:27;2.17;;;1.50;;
13339;SDS011;6739;47.398;8.774;2022-09-24T13:28:55;1.50;;;1.40;;
13339;SDS011;6739;47.398;8.774;2022-09-24T13:31:32;1.50;;;1.40;;
13339;SDS011;6739;47.398;8.774;2022-09-24T13:34:02;1.30;;;1.20;;
13339;SDS011;6739;47.398;8.774;2022-09-24T13:36:32;1.40;;;1.30;;
13339;SDS011;6739;47.398;8.774;2022-09-24T13:39:02;1.50;;;1.40;;
13339;SDS011;6739;47.398;8.774;2022-09-24T13:41:34;1.90;;;1.80;;
13339;SDS011;6739;47.398;8.774;2022-09-24T13:44:04;2.00;;;1.90;;
13339;SDS011;6739;47.398;8.774;2022-09-24T13:46:35;1.93;;;1.83;;
13339;SDS011;6739;47.398;8.774;2022-09-24T13:49:04;3.37;;;1.43;;
13339;SDS011;6739;47.398;8.774;2022-09-24T13:51:36;1.70;;;1.60;;
13339;SDS011;6739;47.398;8.774;2022-09-24T13:54:06;1.60;;;1.50;;
13339;SDS011;6739;47.398;8.774;2022-09-24T13:56:37;1.50;;;1.40;;
13339;SDS011;6739;47.398;8.774;2022-09-24T13:59:09;1.50;;;1.40;;
13339;SDS011;6739;47.398;8.774;2022-09-24T14:01:39;1.73;;;1.63;;
13339;SDS011;6739;47.398;8.774;2022-09-24T14:04:13;1.97;;;1.30;;
13339;SDS011;6739;47.398;8.774;2022-09-24T14:06:42;1.60;;;1.50;;
13339;SDS011;6739;47.398;8.774;2022-09-24T14:09:14;1.33;;;1.23;;
13339;SDS011;6739;47.398;8.774;2022-09-24T14:11:47;1.60;;;1.50;;
13339;SDS011;6739;47.398;8.774;2022-09-24T14:14:17;3.67;;;3.37;;
13339;SDS011;6739;47.398;8.774;2022-09-24T14:16:46;1.70;;;1.60;;
13339;SDS011;6739;47.398;8.774;2022-09-24T14:19:14;1.97;;;1.50;;
13339;SDS011;6739;47.398;8.774;2022-09-24T14:21:42;1.77;;;1.60;;
13339;SDS011;6739;47.398;8.774;2022-09-24T14:24:13;1.73;;;1.63;;
13339;SDS011;6739;47.398;8.774;2022-09-24T14:26:42;2.63;;;2.43;;
13339;SDS011;6739;47.398;8.774;2022-09-24T14:29:13;1.70;;;1.60;;
13339;SDS011;6739;47.398;8.774;2022-09-24T14:31:43;1.60;;;1.50;;
13339;SDS011;6739;47.398;8.774;2022-09-24T14:37:06;2.00;;;1.90;;
13339;SDS011;6739;47.398;8.774;2022-09-24T14:39:36;1.73;;;1.63;;
13339;SDS011;6739;47.398;8.774;2022-09-24T14:42:06;1.60;;;1.50;;
13339;SDS011;6739;47.398;8.774;2022-09-24T14:44:34;2.00;;;1.90;;
13339;SDS011;6739;47.398;8.774;2022-09-24T14:47:04;1.87;;;1.77;;
13339;SDS011;6739;47.398;8.774;2022-09-24T14:49:41;1.73;;;1.63;;
13339;SDS011;6739;47.398;8.774;2022-09-24T14:52:23;1.73;;;1.63;;
13339;SDS011;6739;47.398;8.774;2022-09-24T14:54:59;2.17;;;2.07;;
13339;SDS011;6739;47.398;8.774;2022-09-24T14:57:26;1.80;;;1.70;;
13339;SDS011;6739;47.398;8.774;2022-09-24T14:59:54;2.10;;;1.90;;
13339;SDS011;6739;47.398;8.774;2022-09-24T15:02:23;1.60;;;1.50;;
13339;SDS011;6739;47.398;8.774;2022-09-24T15:04:52;3.83;;;3.50;;
13339;SDS011;6739;47.398;8.774;2022-09-24T15:07:23;18.10;;;16.27;;
13339;SDS011;6739;47.398;8.774;2022-09-24T15:09:51;23.87;;;21.37;;
13339;SDS011;6739;47.398;8.774;2022-09-24T15:12:20;12.17;;;10.97;;
13339;SDS011;6739;47.398;8.774;2022-09-24T15:14:53;5.63;;;5.03;;
13339;SDS011;6739;47.398;8.774;2022-09-24T15:17:22;3.70;;;3.40;;
13339;SDS011;6739;47.398;8.774;2022-09-24T15:19:50;2.40;;;2.20;;
13339;SDS011;6739;47.398;8.774;2022-09-24T15:22:22;1.60;;;1.50;;
13339;SDS011;6739;47.398;8.774;2022-09-24T15:24:51;1.73;;;1.63;;